sensor_id;sensor_type;location;lat;lon;timestamp;pressure;altitude;pressure_sealevel;temperature;humidity
11011;BME280;5558;42.702;23.178;2023-07-28T00:01:29;93766.53;;;12.76;100.00
11011;BME280;5558;42.702;23.178;2023-07-28T00:03:55;93767.84;;;12.78;100.00
11011;BME280;5558;42.702;23.178;2023-07-28T00:06:23;93778.19;;;12.85;100.00
11011;BME280;5558;42.702;23.178;2023-07-28T00:08:49;93772.91;;;12.80;100.00
11011;BME280;5558;42.702;23.178;2023-07-28T00:11:16;93776.59;;;12.79;100.00
11011;BME280;5558;42.702;23.178;2023-07-28T00:13:43;93771.84;;;12.76;100.00
11011;BME280;5558;42.702;23.178;2023-07-28T00:16:10;93775.59;;;12.70;100.00
11011;BME280;5558;42.702;23.178;2023-07-28T00:18:38;93764.97;;;12.70;100.00
11011;BME280;5558;42.702;23.178;2023-07-28T00:21:05;93760.41;;;12.75;100.00
11011;BME280;5558;42.702;23.178;2023-07-28T00:23:31;93762.00;;;12.81;100.00
11011;BME280;5558;42.702;23.178;2023-07-28T00:25:58;93755.81;;;12.91;100.00
11011;BME280;5558;42.702;23.178;2023-07-28T00:28:25;93751.81;;;12.93;100.00
11011;BME280;5558;42.702;23.178;2023-07-28T00:30:52;93760.88;;;12.87;100.00
11011;BME280;5558;42.702;23.178;2023-07-28T00:33:18;93759.38;;;12.76;100.00
11011;BME280;5558;42.702;23.178;2023-07-28T00:35:49;93765.50;;;12.72;100.00
11011;BME280;5558;42.702;23.178;2023-07-28T00:38:16;93759.97;;;12.63;100.00
11011;BME280;5558;42.702;23.178;2023-07-28T00:40:42;93758.91;;;12.64;100.00
11011;BME280;5558;42.702;23.178;2023-07-28T00:43:09;93753.59;;;12.64;100.00
11011;BME280;5558;42.702;23.178;2023-07-28T00:45:36;93758.59;;;12.71;100.00
11011;BME280;5558;42.702;23.178;2023-07-28T00:48:09;93758.88;;;12.69;100.00
11011;BME280;5558;42.702;23.178;2023-07-28T00:50:37;93762.28;;;12.75;100.00
11011;BME280;5558;42.702;23.178;2023-07-28T00:53:07;93758.03;;;12.74;100.00
11011;BME280;5558;42.702;23.178;2023-07-28T00:55:34;93760.63;;;12.84;100.00
11011;BME280;5558;42.702;23.178;2023-07-28T00:58:00;93758.19;;;12.92;100.00
11011;BME280;5558;42.702;23.178;2023-07-28T01:00:27;93759.44;;;13.10;100.00
11011;BME280;5558;42.702;23.178;2023-07-28T01:02:54;93755.97;;;13.09;100.00
11011;BME280;5558;42.702;23.178;2023-07-28T01:05:21;93757.09;;;13.03;100.00
11011;BME280;5558;42.702;23.178;2023-07-28T01:07:58;93759.97;;;13.12;100.00
11011;BME280;5558;42.702;23.178;2023-07-28T01:10:31;93756.97;;;13.18;100.00
11011;BME280;5558;42.702;23.178;2023-07-28T01:12:58;93764.75;;;13.10;100.00
11011;BME280;5558;42.702;23.178;2023-07-28T01:15:25;93755.84;;;12.86;100.00
11011;BME280;5558;42.702;23.178;2023-07-28T01:17:52;93761.13;;;12.91;100.00
11011;BME280;5558;42.702;23.178;2023-07-28T01:20:18;93760.38;;;12.85;100.00
11011;BME280;5558;42.702;23.178;2023-07-28T01:23:01;93750.53;;;12.86;100.00
11011;BME280;5558;42.702;23.178;2023-07-28T01:25:39;93751.06;;;12.88;100.00
11011;BME280;5558;42.702;23.178;2023-07-28T01:28:11;93737.84;;;12.78;100.00
11011;BME280;5558;42.702;23.178;2023-07-28T01:30:39;93756.91;;;12.41;100.00
11011;BME280;5558;42.702;23.178;2023-07-28T01:33:06;93748.13;;;11.62;100.00
11011;BME280;5558;42.702;23.178;2023-07-28T01:35:33;93748.69;;;11.08;100.00
11011;BME280;5558;42.702;23.178;2023-07-28T01:37:59;93758.97;;;10.80;100.00
11011;BME280;5558;42.702;23.178;2023-07-28T01:40:26;93757.88;;;10.66;100.00
11011;BME280;5558;42.702;23.178;2023-07-28T01:42:53;93755.78;;;10.63;100.00
11011;BME280;5558;42.702;23.178;2023-07-28T01:45:21;93757.59;;;10.52;100.00
11011;BME280;5558;42.702;23.178;2023-07-28T01:47:47;93753.88;;;10.38;100.00
11011;BME280;5558;42.702;23.178;2023-07-28T01:50:14;93761.84;;;10.43;100.00
11011;BME280;5558;42.702;23.178;2023-07-28T01:52:41;93761.84;;;10.48;100.00
11011;BME280;5558;42.702;23.178;2023-07-28T01:55:09;93741.69;;;10.37;100.00
11011;BME280;5558;42.702;23.178;2023-07-28T01:57:39;93762.13;;;10.57;100.00
11011;BME280;5558;42.702;23.178;2023-07-28T02:00:07;93764.81;;;10.72;100.00
11011;BME280;5558;42.702;23.178;2023-07-28T02:02:35;93741.75;;;10.67;100.00
11011;BME280;5558;42.702;23.178;2023-07-28T02:05:02;93761.38;;;11.01;100.00
11011;BME280;5558;42.702;23.178;2023-07-28T02:07:29;93761.38;;;11.06;100.00
11011;BME280;5558;42.702;23.178;2023-07-28T02:09:56;93771.22;;;11.11;100.00
11011;BME280;5558;42.702;23.178;2023-07-28T02:12:22;93764.84;;;11.17;100.00
11011;BME280;5558;42.702;23.178;2023-07-28T02:14:50;93770.41;;;11.00;100.00
11011;BME280;5558;42.702;23.178;2023-07-28T02:17:17;93771.44;;;10.99;100.00
11011;BME280;5558;42.702;23.178;2023-07-28T02:19:45;93777.81;;;11.14;100.00
11011;BME280;5558;42.702;23.178;2023-07-28T02:22:12;93771.44;;;11.20;100.00
11011;BME280;5558;42.702;23.178;2023-07-28T02:24:39;93773.06;;;11.26;100.00
11011;BME280;5558;42.702;23.178;2023-07-28T02:27:06;93773.06;;;11.11;100.00
11011;BME280;5558;42.702;23.178;2023-07-28T02:29:32;93770.13;;;11.07;100.00
11011;BME280;5558;42.702;23.178;2023-07-28T02:31:59;93770.66;;;11.19;100.00
11011;BME280;5558;42.702;23.178;2023-07-28T02:34:26;93775.44;;;11.27;100.00
11011;BME280;5558;42.702;23.178;2023-07-28T02:36:54;93774.91;;;11.30;100.00
11011;BME280;5558;42.702;23.178;2023-07-28T02:39:20;93781.81;;;11.36;100.00
11011;BME280;5558;42.702;23.178;2023-07-28T02:41:47;93776.50;;;11.36;100.00
11011;BME280;5558;42.702;23.178;2023-07-28T02:44:14;93778.88;;;11.33;100.00
11011;BME280;5558;42.702;23.178;2023-07-28T02:46:40;93778.09;;;11.27;100.00
11011;BME280;5558;42.702;23.178;2023-07-28T02:49:07;93774.91;;;11.10;100.00
11011;BME280;5558;42.702;23.178;2023-07-28T02:51:34;93774.38;;;11.23;100.00
11011;BME280;5558;42.702;23.178;2023-07-28T02:54:02;93772.78;;;11.22;100.00
11011;BME280;5558;42.702;23.178;2023-07-28T02:56:29;93767.75;;;11.26;100.00
11011;BME280;5558;42.702;23.178;2023-07-28T02:58:59;93767.22;;;11.19;100.00
11011;BME280;5558;42.702;23.178;2023-07-28T03:01:26;93766.94;;;11.20;100.00
11011;BME280;5558;42.702;23.178;2023-07-28T03:03:55;93774.63;;;11.17;100.00
11011;BME280;5558;42.702;23.178;2023-07-28T03:06:22;93770.66;;;11.04;100.00
11011;BME280;5558;42.702;23.178;2023-07-28T03:08:49;93783.38;;;11.02;100.00
11011;BME280;5558;42.702;23.178;2023-07-28T03:11:17;93775.97;;;11.04;100.00
11011;BME280;5558;42.702;23.178;2023-07-28T03:13:44;93739.13;;;10.82;100.00
11011;BME280;5558;42.702;23.178;2023-07-28T03:28:14;93776.66;;;12.05;100.00
11011;BME280;5558;42.702;23.178;2023-07-28T03:30:41;93791.19;;;12.33;100.00
11011;BME280;5558;42.702;23.178;2023-07-28T03:33:08;93796.25;;;13.26;100.00
11011;BME280;5558;42.702;23.178;2023-07-28T03:35:34;93795.16;;;14.65;100.00
11011;BME280;5558;42.702;23.178;2023-07-28T03:38:01;93798.38;;;16.06;100.00
11011;BME280;5558;42.702;23.178;2023-07-28T03:40:28;93806.91;;;17.39;87.09
11011;BME280;5558;42.702;23.178;2023-07-28T03:42:55;93800.31;;;18.24;73.13
11011;BME280;5558;42.702;23.178;2023-07-28T03:45:23;93806.38;;;19.60;65.93
11011;BME280;5558;42.702;23.178;2023-07-28T03:47:50;93806.38;;;20.95;58.00
11011;BME280;5558;42.702;23.178;2023-07-28T03:50:16;93805.97;;;22.04;51.13
11011;BME280;5558;42.702;23.178;2023-07-28T03:52:43;93809.28;;;22.54;47.23
11011;BME280;5558;42.702;23.178;2023-07-28T03:55:10;93803.19;;;22.13;47.70
11011;BME280;5558;42.702;23.178;2023-07-28T03:57:36;93809.53;;;22.73;45.85
11011;BME280;5558;42.702;23.178;2023-07-28T04:00:04;93805.91;;;22.57;45.86
11011;BME280;5558;42.702;23.178;2023-07-28T04:02:33;93808.28;;;22.59;45.62
11011;BME280;5558;42.702;23.178;2023-07-28T04:04:59;93799.78;;;22.48;45.52
11011;BME280;5558;42.702;23.178;2023-07-28T04:07:26;93805.06;;;22.89;44.66
11011;BME280;5558;42.702;23.178;2023-07-28T04:09:53;93804.88;;;23.70;43.47
11011;BME280;5558;42.702;23.178;2023-07-28T04:12:19;93807.47;;;25.24;40.19
11011;BME280;5558;42.702;23.178;2023-07-28T04:14:46;93817.75;;;26.80;36.62
11011;BME280;5558;42.702;23.178;2023-07-28T04:17:13;93816.06;;;27.92;34.76
11011;BME280;5558;42.702;23.178;2023-07-28T04:19:41;93815.94;;;28.77;32.95
11011;BME280;5558;42.702;23.178;2023-07-28T04:22:08;93811.59;;;29.56;31.61
11011;BME280;5558;42.702;23.178;2023-07-28T04:24:34;93819.16;;;30.52;29.39
11011;BME280;5558;42.702;23.178;2023-07-28T04:27:01;93814.25;;;31.18;28.39
11011;BME280;5558;42.702;23.178;2023-07-28T04:29:27;93815.47;;;31.55;27.47
11011;BME280;5558;42.702;23.178;2023-07-28T04:31:54;93823.28;;;31.53;27.34
11011;BME280;5558;42.702;23.178;2023-07-28T04:34:21;93818.94;;;32.05;26.96
11011;BME280;5558;42.702;23.178;2023-07-28T04:36:49;93819.00;;;32.91;26.49
11011;BME280;5558;42.702;23.178;2023-07-28T04:39:15;93829.47;;;33.69;25.12
11011;BME280;5558;42.702;23.178;2023-07-28T04:41:42;93819.22;;;34.13;24.27
11011;BME280;5558;42.702;23.178;2023-07-28T04:44:09;93824.56;;;34.65;23.74
11011;BME280;5558;42.702;23.178;2023-07-28T04:46:36;93823.50;;;34.85;23.13
11011;BME280;5558;42.702;23.178;2023-07-28T04:49:02;93837.47;;;35.54;23.00
11011;BME280;5558;42.702;23.178;2023-07-28T04:51:29;93831.81;;;35.65;22.49
11011;BME280;5558;42.702;23.178;2023-07-28T04:53:57;93830.13;;;36.17;22.02
11011;BME280;5558;42.702;23.178;2023-07-28T04:56:24;93830.13;;;36.80;21.48
11011;BME280;5558;42.702;23.178;2023-07-28T04:58:51;93829.56;;;35.30;22.17
11011;BME280;5558;42.702;23.178;2023-07-28T05:01:17;93820.16;;;35.54;22.18
11011;BME280;5558;42.702;23.178;2023-07-28T05:03:44;93816.53;;;35.84;21.63
11011;BME280;5558;42.702;23.178;2023-07-28T05:06:11;93815.56;;;35.21;22.51
11011;BME280;5558;42.702;23.178;2023-07-28T05:08:37;93821.25;;;35.33;21.70
11011;BME280;5558;42.702;23.178;2023-07-28T05:11:05;93818.72;;;35.96;21.57
11011;BME280;5558;42.702;23.178;2023-07-28T05:13:32;93825.72;;;35.50;21.98
11011;BME280;5558;42.702;23.178;2023-07-28T05:15:59;93825.28;;;36.02;21.91
11011;BME280;5558;42.702;23.178;2023-07-28T05:18:26;93822.69;;;36.37;21.04
11011;BME280;5558;42.702;23.178;2023-07-28T05:20:52;93820.22;;;35.50;21.94
11011;BME280;5558;42.702;23.178;2023-07-28T05:23:21;93818.31;;;35.21;22.38
11011;BME280;5558;42.702;23.178;2023-07-28T05:25:47;93824.78;;;35.87;22.11
11011;BME280;5558;42.702;23.178;2023-07-28T05:28:15;93829.44;;;35.90;22.16
11011;BME280;5558;42.702;23.178;2023-07-28T05:30:42;93819.31;;;36.26;21.32
11011;BME280;5558;42.702;23.178;2023-07-28T05:33:09;93828.69;;;36.52;21.32
11011;BME280;5558;42.702;23.178;2023-07-28T05:35:35;93816.47;;;35.64;22.16
11011;BME280;5558;42.702;23.178;2023-07-28T05:38:02;93814.94;;;36.09;22.27
11011;BME280;5558;42.702;23.178;2023-07-28T05:40:29;93806.44;;;36.20;21.94
11011;BME280;5558;42.702;23.178;2023-07-28T05:42:56;93806.13;;;33.43;24.56
11011;BME280;5558;42.702;23.178;2023-07-28T05:45:24;93805.00;;;33.81;24.01
11011;BME280;5558;42.702;23.178;2023-07-28T05:47:51;93798.16;;;33.56;24.96
11011;BME280;5558;42.702;23.178;2023-07-28T05:50:18;93798.84;;;32.36;25.88
11011;BME280;5558;42.702;23.178;2023-07-28T05:52:44;93797.44;;;31.19;27.08
11011;BME280;5558;42.702;23.178;2023-07-28T05:55:12;93789.63;;;31.67;26.79
11011;BME280;5558;42.702;23.178;2023-07-28T05:57:38;93794.31;;;31.10;27.22
11011;BME280;5558;42.702;23.178;2023-07-28T06:00:06;93783.25;;;30.50;28.03
11011;BME280;5558;42.702;23.178;2023-07-28T06:02:36;93786.69;;;29.11;30.05
11011;BME280;5558;42.702;23.178;2023-07-28T06:05:03;93787.22;;;29.81;29.18
11011;BME280;5558;42.702;23.178;2023-07-28T06:07:30;93783.19;;;30.40;28.58
11011;BME280;5558;42.702;23.178;2023-07-28T06:09:57;93787.28;;;31.23;27.57
11011;BME280;5558;42.702;23.178;2023-07-28T06:12:24;93791.88;;;32.14;26.45
11011;BME280;5558;42.702;23.178;2023-07-28T06:14:50;93792.38;;;31.53;26.56
11011;BME280;5558;42.702;23.178;2023-07-28T06:17:17;93798.25;;;31.72;26.49
11011;BME280;5558;42.702;23.178;2023-07-28T06:19:45;93792.13;;;32.62;25.40
11011;BME280;5558;42.702;23.178;2023-07-28T06:40:43;93782.22;;;31.39;27.12
11011;BME280;5558;42.702;23.178;2023-07-28T06:43:10;93784.06;;;32.16;25.93
11011;BME280;5558;42.702;23.178;2023-07-28T06:45:36;93776.66;;;32.06;26.25
11011;BME280;5558;42.702;23.178;2023-07-28T06:48:04;93788.44;;;31.89;26.29
11011;BME280;5558;42.702;23.178;2023-07-28T06:50:30;93783.00;;;31.47;26.90
11011;BME280;5558;42.702;23.178;2023-07-28T06:52:57;93778.56;;;30.61;27.12
11011;BME280;5558;42.702;23.178;2023-07-28T06:55:24;93790.00;;;30.81;27.88
11011;BME280;5558;42.702;23.178;2023-07-28T06:57:52;93786.69;;;30.33;28.23
11011;BME280;5558;42.702;23.178;2023-07-28T07:00:19;93778.31;;;29.37;29.19
11011;BME280;5558;42.702;23.178;2023-07-28T07:02:46;93766.94;;;29.85;29.21
11011;BME280;5558;42.702;23.178;2023-07-28T07:05:12;93786.69;;;30.30;28.73
11011;BME280;5558;42.702;23.178;2023-07-28T07:07:40;93773.63;;;29.92;29.62
11011;BME280;5558;42.702;23.178;2023-07-28T07:10:08;93782.28;;;30.11;28.26
11011;BME280;5558;42.702;23.178;2023-07-28T07:12:35;93783.53;;;30.24;29.12
11011;BME280;5558;42.702;23.178;2023-07-28T07:15:04;93780.84;;;30.38;28.75
11011;BME280;5558;42.702;23.178;2023-07-28T07:17:32;93780.94;;;29.23;29.44
11011;BME280;5558;42.702;23.178;2023-07-28T07:19:59;93773.06;;;29.11;29.63
11011;BME280;5558;42.702;23.178;2023-07-28T07:22:26;93783.97;;;28.74;31.79
11011;BME280;5558;42.702;23.178;2023-07-28T07:24:53;93785.06;;;28.29;31.27
11011;BME280;5558;42.702;23.178;2023-07-28T07:27:21;93781.63;;;27.24;32.57
11011;BME280;5558;42.702;23.178;2023-07-28T07:29:48;93779.84;;;25.88;36.35
11011;BME280;5558;42.702;23.178;2023-07-28T07:32:16;93784.22;;;25.23;37.40
11011;BME280;5558;42.702;23.178;2023-07-28T07:34:42;93789.72;;;24.49;38.38
11011;BME280;5558;42.702;23.178;2023-07-28T07:37:09;93782.63;;;24.60;39.45
11011;BME280;5558;42.702;23.178;2023-07-28T07:39:36;93781.34;;;24.54;38.33
11011;BME280;5558;42.702;23.178;2023-07-28T07:42:03;93775.47;;;24.52;38.39
11011;BME280;5558;42.702;23.178;2023-07-28T07:44:30;93784.47;;;24.56;38.57
11011;BME280;5558;42.702;23.178;2023-07-28T07:47:00;93786.13;;;24.60;38.89
11011;BME280;5558;42.702;23.178;2023-07-28T07:49:28;93785.63;;;24.27;39.75
11011;BME280;5558;42.702;23.178;2023-07-28T07:51:55;93781.03;;;24.28;39.40
11011;BME280;5558;42.702;23.178;2023-07-28T07:54:21;93786.88;;;24.30;39.59
11011;BME280;5558;42.702;23.178;2023-07-28T07:56:48;93777.34;;;24.20;40.53
11011;BME280;5558;42.702;23.178;2023-07-28T07:59:15;93788.28;;;24.39;40.14
11011;BME280;5558;42.702;23.178;2023-07-28T08:01:41;93786.44;;;24.28;39.65
11011;BME280;5558;42.702;23.178;2023-07-28T08:04:08;93790.84;;;24.63;40.59
11011;BME280;5558;42.702;23.178;2023-07-28T08:06:37;93785.94;;;24.38;40.39
11011;BME280;5558;42.702;23.178;2023-07-28T08:09:04;93775.50;;;24.83;38.10
11011;BME280;5558;42.702;23.178;2023-07-28T08:11:31;93774.41;;;25.50;38.94
11011;BME280;5558;42.702;23.178;2023-07-28T08:13:58;93774.78;;;25.67;36.78
11011;BME280;5558;42.702;23.178;2023-07-28T08:16:25;93772.84;;;25.33;38.58
11011;BME280;5558;42.702;23.178;2023-07-28T08:18:51;93769.22;;;24.79;40.23
11011;BME280;5558;42.702;23.178;2023-07-28T08:21:18;93766.63;;;24.82;39.69
11011;BME280;5558;42.702;23.178;2023-07-28T08:23:46;93769.19;;;25.10;40.24
11011;BME280;5558;42.702;23.178;2023-07-28T08:26:13;93773.72;;;25.72;39.62
11011;BME280;5558;42.702;23.178;2023-07-28T08:28:40;93766.91;;;25.27;37.73
11011;BME280;5558;42.702;23.178;2023-07-28T08:31:06;93772.16;;;25.36;39.43
11011;BME280;5558;42.702;23.178;2023-07-28T08:33:33;93771.75;;;24.72;39.46
11011;BME280;5558;42.702;23.178;2023-07-28T08:36:00;93763.13;;;24.23;42.25
11011;BME280;5558;42.702;23.178;2023-07-28T08:38:27;93774.31;;;24.22;41.79
11011;BME280;5558;42.702;23.178;2023-07-28T08:40:56;93763.72;;;24.17;40.96
11011;BME280;5558;42.702;23.178;2023-07-28T08:43:23;93772.47;;;23.98;41.99
11011;BME280;5558;42.702;23.178;2023-07-28T08:45:51;93763.09;;;24.07;41.92
11011;BME280;5558;42.702;23.178;2023-07-28T08:48:20;93762.09;;;24.00;43.29
11011;BME280;5558;42.702;23.178;2023-07-28T08:50:46;93754.09;;;24.47;44.30
11011;BME280;5558;42.702;23.178;2023-07-28T08:53:13;93760.19;;;24.00;42.47
11011;BME280;5558;42.702;23.178;2023-07-28T08:55:39;93764.38;;;24.41;43.50
11011;BME280;5558;42.702;23.178;2023-07-28T08:58:18;93751.41;;;24.19;42.89
11011;BME280;5558;42.702;23.178;2023-07-28T09:00:46;93749.34;;;24.28;40.44
11011;BME280;5558;42.702;23.178;2023-07-28T09:03:14;93749.00;;;24.30;40.17
11011;BME280;5558;42.702;23.178;2023-07-28T09:05:42;93743.50;;;24.42;38.29
11011;BME280;5558;42.702;23.178;2023-07-28T09:08:09;93743.53;;;24.73;39.48
11011;BME280;5558;42.702;23.178;2023-07-28T09:10:43;93732.28;;;24.71;40.76
11011;BME280;5558;42.702;23.178;2023-07-28T09:13:10;93717.94;;;24.55;41.17
11011;BME280;5558;42.702;23.178;2023-07-28T09:15:39;93727.97;;;24.54;39.43
11011;BME280;5558;42.702;23.178;2023-07-28T09:18:11;93722.63;;;24.58;40.61
11011;BME280;5558;42.702;23.178;2023-07-28T09:20:39;93714.34;;;24.66;41.37
11011;BME280;5558;42.702;23.178;2023-07-28T09:23:06;93712.69;;;24.62;39.04
11011;BME280;5558;42.702;23.178;2023-07-28T09:25:34;93707.03;;;24.82;40.27
11011;BME280;5558;42.702;23.178;2023-07-28T09:28:01;93705.53;;;24.54;40.46
11011;BME280;5558;42.702;23.178;2023-07-28T09:30:45;93702.56;;;24.28;40.22
11011;BME280;5558;42.702;23.178;2023-07-28T09:33:12;93696.44;;;24.46;41.58
11011;BME280;5558;42.702;23.178;2023-07-28T09:35:49;93695.94;;;24.87;38.75
11011;BME280;5558;42.702;23.178;2023-07-28T09:38:18;93691.13;;;24.50;39.13
11011;BME280;5558;42.702;23.178;2023-07-28T09:40:45;93702.25;;;24.76;38.24
11011;BME280;5558;42.702;23.178;2023-07-28T09:43:12;93688.25;;;24.89;38.15
11011;BME280;5558;42.702;23.178;2023-07-28T09:45:40;93685.63;;;24.93;37.78
11011;BME280;5558;42.702;23.178;2023-07-28T09:48:10;93689.22;;;25.16;37.58
11011;BME280;5558;42.702;23.178;2023-07-28T09:50:38;93682.09;;;25.62;38.11
11011;BME280;5558;42.702;23.178;2023-07-28T09:53:08;93684.44;;;25.82;37.18
11011;BME280;5558;42.702;23.178;2023-07-28T09:55:35;93690.38;;;25.69;36.10
11011;BME280;5558;42.702;23.178;2023-07-28T09:58:05;93688.03;;;25.67;36.38
11011;BME280;5558;42.702;23.178;2023-07-28T10:00:33;93683.06;;;25.92;37.28
11011;BME280;5558;42.702;23.178;2023-07-28T10:03:01;93681.41;;;26.06;36.80
11011;BME280;5558;42.702;23.178;2023-07-28T10:05:30;93670.03;;;26.42;35.10
11011;BME280;5558;42.702;23.178;2023-07-28T10:07:57;93674.19;;;26.59;33.41
11011;BME280;5558;42.702;23.178;2023-07-28T10:10:25;93677.28;;;26.58;32.86
11011;BME280;5558;42.702;23.178;2023-07-28T10:12:54;93672.84;;;26.69;33.82
11011;BME280;5558;42.702;23.178;2023-07-28T10:15:28;93679.75;;;26.89;31.76
11011;BME280;5558;42.702;23.178;2023-07-28T10:17:56;93664.06;;;27.05;33.35
11011;BME280;5558;42.702;23.178;2023-07-28T10:20:30;93673.09;;;27.38;31.92
11011;BME280;5558;42.702;23.178;2023-07-28T10:23:05;93669.06;;;27.55;31.79
11011;BME280;5558;42.702;23.178;2023-07-28T10:25:34;93664.84;;;27.05;33.56
11011;BME280;5558;42.702;23.178;2023-07-28T10:28:01;93664.91;;;27.09;35.01
11011;BME280;5558;42.702;23.178;2023-07-28T10:30:34;93666.09;;;27.11;31.64
11011;BME280;5558;42.702;23.178;2023-07-28T10:33:02;93666.00;;;27.30;32.03
11011;BME280;5558;42.702;23.178;2023-07-28T10:35:31;93665.13;;;27.52;30.89
11011;BME280;5558;42.702;23.178;2023-07-28T10:38:29;93658.22;;;27.62;30.30
11011;BME280;5558;42.702;23.178;2023-07-28T10:41:08;93657.47;;;27.95;31.09
11011;BME280;5558;42.702;23.178;2023-07-28T10:43:35;93650.94;;;28.03;31.26
11011;BME280;5558;42.702;23.178;2023-07-28T10:46:04;93660.75;;;28.07;31.07
11011;BME280;5558;42.702;23.178;2023-07-28T10:48:31;93658.09;;;28.18;30.65
11011;BME280;5558;42.702;23.178;2023-07-28T10:51:00;93657.44;;;28.31;29.29
11011;BME280;5558;42.702;23.178;2023-07-28T10:53:26;93642.94;;;28.17;30.34
11011;BME280;5558;42.702;23.178;2023-07-28T10:55:53;93638.16;;;28.07;30.29
11011;BME280;5558;42.702;23.178;2023-07-28T10:58:20;93646.06;;;27.82;30.57
11011;BME280;5558;42.702;23.178;2023-07-28T11:00:47;93641.75;;;27.81;30.75
11011;BME280;5558;42.702;23.178;2023-07-28T11:03:13;93631.94;;;27.73;31.10
11011;BME280;5558;42.702;23.178;2023-07-28T11:05:40;93629.88;;;27.96;31.50
11011;BME280;5558;42.702;23.178;2023-07-28T11:08:09;93638.69;;;28.19;30.94
11011;BME280;5558;42.702;23.178;2023-07-28T11:10:37;93633.63;;;28.21;30.37
11011;BME280;5558;42.702;23.178;2023-07-28T11:13:07;93624.78;;;28.28;30.79
11011;BME280;5558;42.702;23.178;2023-07-28T11:15:33;93618.31;;;28.06;30.19
11011;BME280;5558;42.702;23.178;2023-07-28T11:18:00;93622.94;;;27.99;30.98
11011;BME280;5558;42.702;23.178;2023-07-28T11:20:29;93621.38;;;28.01;31.07
11011;BME280;5558;42.702;23.178;2023-07-28T11:22:58;93609.47;;;28.16;30.61
11011;BME280;5558;42.702;23.178;2023-07-28T11:25:28;93610.00;;;28.29;31.05
11011;BME280;5558;42.702;23.178;2023-07-28T11:27:55;93614.34;;;28.40;30.48
11011;BME280;5558;42.702;23.178;2023-07-28T11:30:22;93601.69;;;28.58;29.51
11011;BME280;5558;42.702;23.178;2023-07-28T11:32:50;93604.16;;;28.77;30.19
11011;BME280;5558;42.702;23.178;2023-07-28T11:35:19;93590.81;;;28.62;30.23
11011;BME280;5558;42.702;23.178;2023-07-28T11:37:48;93599.13;;;28.80;29.23
11011;BME280;5558;42.702;23.178;2023-07-28T11:40:17;93593.16;;;28.63;28.44
11011;BME280;5558;42.702;23.178;2023-07-28T11:42:48;93597.75;;;28.52;29.41
11011;BME280;5558;42.702;23.178;2023-07-28T11:45:17;93597.19;;;28.33;29.85
11011;BME280;5558;42.702;23.178;2023-07-28T11:47:58;93596.06;;;28.37;30.90
11011;BME280;5558;42.702;23.178;2023-07-28T11:50:26;93588.72;;;28.45;31.32
11011;BME280;5558;42.702;23.178;2023-07-28T11:52:52;93604.53;;;28.29;30.77
11011;BME280;5558;42.702;23.178;2023-07-28T11:55:19;93601.84;;;28.32;31.28
11011;BME280;5558;42.702;23.178;2023-07-28T11:57:49;93598.81;;;28.41;29.95
11011;BME280;5558;42.702;23.178;2023-07-28T12:00:16;93599.91;;;28.36;30.96
11011;BME280;5558;42.702;23.178;2023-07-28T12:02:44;93593.41;;;28.48;30.69
11011;BME280;5558;42.702;23.178;2023-07-28T12:05:14;93593.56;;;28.65;30.33
11011;BME280;5558;42.702;23.178;2023-07-28T12:07:46;93572.13;;;28.60;30.88
11011;BME280;5558;42.702;23.178;2023-07-28T12:10:13;93548.25;;;28.47;29.59
11011;BME280;5558;42.702;23.178;2023-07-28T12:12:42;93578.13;;;28.87;31.04
11011;BME280;5558;42.702;23.178;2023-07-28T12:15:25;93584.03;;;28.96;31.21
11011;BME280;5558;42.702;23.178;2023-07-28T12:18:08;93582.22;;;29.11;29.81
11011;BME280;5558;42.702;23.178;2023-07-28T12:20:40;93570.16;;;29.19;30.86
11011;BME280;5558;42.702;23.178;2023-07-28T12:23:07;93538.50;;;29.00;30.18
11011;BME280;5558;42.702;23.178;2023-07-28T12:25:36;93567.84;;;29.21;30.79
11011;BME280;5558;42.702;23.178;2023-07-28T12:28:03;93564.31;;;29.17;29.76
11011;BME280;5558;42.702;23.178;2023-07-28T12:30:31;93562.78;;;29.26;29.34
11011;BME280;5558;42.702;23.178;2023-07-28T12:32:58;93563.56;;;29.27;29.37
11011;BME280;5558;42.702;23.178;2023-07-28T12:35:26;93553.38;;;29.10;30.02
11011;BME280;5558;42.702;23.178;2023-07-28T12:37:56;93563.13;;;29.11;29.95
11011;BME280;5558;42.702;23.178;2023-07-28T12:40:26;93548.38;;;29.22;29.33
11011;BME280;5558;42.702;23.178;2023-07-28T12:42:52;93554.56;;;29.19;29.55
11011;BME280;5558;42.702;23.178;2023-07-28T12:45:20;93541.72;;;29.16;30.26
11011;BME280;5558;42.702;23.178;2023-07-28T12:47:48;93544.44;;;29.20;30.80
11011;BME280;5558;42.702;23.178;2023-07-28T12:50:15;93551.91;;;29.30;30.42
11011;BME280;5558;42.702;23.178;2023-07-28T12:52:41;93536.34;;;29.37;30.05
11011;BME280;5558;42.702;23.178;2023-07-28T12:55:08;93539.03;;;29.30;29.88
11011;BME280;5558;42.702;23.178;2023-07-28T12:57:35;93545.66;;;29.33;30.62
11011;BME280;5558;42.702;23.178;2023-07-28T13:00:02;93537.50;;;29.36;30.38
11011;BME280;5558;42.702;23.178;2023-07-28T13:02:37;93520.81;;;29.55;29.52
11011;BME280;5558;42.702;23.178;2023-07-28T13:05:06;93528.59;;;29.53;30.11
11011;BME280;5558;42.702;23.178;2023-07-28T13:07:34;93509.44;;;29.29;30.16
11011;BME280;5558;42.702;23.178;2023-07-28T13:10:01;93519.22;;;29.47;30.33
11011;BME280;5558;42.702;23.178;2023-07-28T13:12:28;93510.66;;;29.49;31.56
11011;BME280;5558;42.702;23.178;2023-07-28T13:14:55;93511.81;;;29.51;31.20
11011;BME280;5558;42.702;23.178;2023-07-28T13:17:22;93495.84;;;29.53;30.20
11011;BME280;5558;42.702;23.178;2023-07-28T13:19:48;93504.44;;;29.59;31.01
11011;BME280;5558;42.702;23.178;2023-07-28T13:22:17;93499.78;;;29.63;33.27
11011;BME280;5558;42.702;23.178;2023-07-28T13:24:43;93503.66;;;29.65;30.72
11011;BME280;5558;42.702;23.178;2023-07-28T13:27:10;93506.38;;;29.62;30.18
11011;BME280;5558;42.702;23.178;2023-07-28T13:29:37;93498.63;;;29.67;30.59
11011;BME280;5558;42.702;23.178;2023-07-28T13:32:04;93491.63;;;29.73;31.10